Time;durP1;ratioP1;P1;durP2;ratioP2;P2;SDS_P1;SDS_P2;PMS_P1;PMS_P2;Temp;Humidity;BMP_temperature;BMP_pressure;BME280_temperature;BME280_humidity;BME280_pressure;Samples;Min_cycle;Max_cycle;Signal;HPM_P1;HPM_P2
2023/12/05 00:01:53;;;;;;;20.73;17.07;;;;;;;;;;5049774;28;20446;-67
2023/12/05 00:04:18;;;;;;;22.67;16.93;;;;;;;;;;5048526;28;20408;-67
2023/12/05 00:06:43;;;;;;;22.27;18.17;;;;;;;;;;5049580;28;20417;-67
2023/12/05 00:09:11;;;;;;;23.53;18.43;;;;;;;;;;5049264;28;20385;-67
2023/12/05 00:11:38;;;;;;;20.95;17.98;;;;;;;;;;5048759;28;20463;-67
2023/12/05 00:14:04;;;;;;;17.90;15.20;;;;;;;;;;5049174;28;20404;-67
2023/12/05 00:16:29;;;;;;;20.93;17.03;;;;;;;;;;5048531;28;20386;-67
2023/12/05 00:18:54;;;;;;;22.43;18.17;;;;;;;;;;5049605;28;20479;-67
2023/12/05 00:21:20;;;;;;;23.37;17.97;;;;;;;;;;5049081;28;20512;-67
2023/12/05 00:23:45;;;;;;;22.83;17.60;;;;;;;;;;5048581;28;20435;-67
2023/12/05 00:26:10;;;;;;;22.53;18.30;;;;;;;;;;5048784;28;20436;-67
2023/12/05 00:28:35;;;;;;;20.50;17.03;;;;;;;;;;5049359;28;20391;-67
2023/12/05 00:31:01;;;;;;;23.30;18.70;;;;;;;;;;5048022;28;20398;-67
2023/12/05 00:33:26;;;;;;;21.80;17.53;;;;;;;;;;5049524;28;20385;-67
2023/12/05 00:35:51;;;;;;;25.47;18.80;;;;;;;;;;5049410;28;20782;-68
2023/12/05 00:38:17;;;;;;;23.57;18.50;;;;;;;;;;5048139;28;20413;-67
2023/12/05 00:40:42;;;;;;;21.07;16.83;;;;;;;;;;5052660;28;20519;-67
2023/12/05 00:43:07;;;;;;;21.50;17.53;;;;;;;;;;5052559;28;20536;-67
2023/12/05 00:45:33;;;;;;;21.47;17.43;;;;;;;;;;5052098;28;20425;-68
2023/12/05 00:47:58;;;;;;;21.30;17.35;;;;;;;;;;5052980;28;20451;-67
2023/12/05 00:50:23;;;;;;;20.47;16.37;;;;;;;;;;5052548;28;20397;-67
2023/12/05 00:52:49;;;;;;;20.60;17.00;;;;;;;;;;5052088;28;20397;-67
2023/12/05 00:55:14;;;;;;;21.70;17.23;;;;;;;;;;5052354;28;20401;-67
2023/12/05 00:57:39;;;;;;;20.57;16.43;;;;;;;;;;5052971;28;20401;-67
2023/12/05 01:00:06;;;;;;;22.60;17.20;;;;;;;;;;5051640;28;20904;-67
2023/12/05 01:02:31;;;;;;;20.20;16.30;;;;;;;;;;5052565;28;20401;-67
2023/12/05 01:04:56;;;;;;;20.13;16.50;;;;;;;;;;5052780;28;20405;-67
2023/12/05 01:07:21;;;;;;;21.87;16.10;;;;;;;;;;5051311;28;20501;-67
2023/12/05 01:09:47;;;;;;;21.83;17.27;;;;;;;;;;5052485;28;20405;-67
2023/12/05 01:12:12;;;;;;;19.53;16.53;;;;;;;;;;5052242;28;20967;-67
2023/12/05 01:14:37;;;;;;;20.50;16.30;;;;;;;;;;5051931;28;20427;-66
2023/12/05 01:17:03;;;;;;;21.93;17.63;;;;;;;;;;5051731;28;20404;-67
2023/12/05 01:19:29;;;;;;;20.60;16.92;;;;;;;;;;5052402;28;20488;-66
2023/12/05 01:21:54;;;;;;;18.53;15.73;;;;;;;;;;5051626;28;20504;-67
2023/12/05 01:24:19;;;;;;;22.02;17.58;;;;;;;;;;5051748;28;20552;-67
2023/12/05 01:26:44;;;;;;;20.60;16.57;;;;;;;;;;5051319;28;20413;-67
2023/12/05 01:29:10;;;;;;;21.90;17.33;;;;;;;;;;5051820;28;20715;-67
2023/12/05 01:31:36;;;;;;;22.93;18.00;;;;;;;;;;5052195;28;20479;-66
2023/12/05 01:34:01;;;;;;;23.40;18.38;;;;;;;;;;5050975;28;20413;-67
2023/12/05 01:36:26;;;;;;;21.58;17.30;;;;;;;;;;5052308;28;20443;-67
2023/12/05 01:38:52;;;;;;;21.93;17.53;;;;;;;;;;5052250;28;20418;-66
2023/12/05 01:41:17;;;;;;;22.33;17.90;;;;;;;;;;5050579;28;20404;-66
2023/12/05 01:43:42;;;;;;;23.03;17.93;;;;;;;;;;5052022;28;20397;-66
2023/12/05 01:46:08;;;;;;;24.00;18.53;;;;;;;;;;5051472;28;20413;-66
2023/12/05 01:48:33;;;;;;;23.23;18.80;;;;;;;;;;5051125;28;20389;-67
2023/12/05 01:51:00;;;;;;;21.60;17.30;;;;;;;;;;5034180;28;20463;-66
2023/12/05 01:53:25;;;;;;;25.00;18.92;;;;;;;;;;5051587;28;20955;-66
2023/12/05 01:55:50;;;;;;;23.37;18.33;;;;;;;;;;5050794;28;20447;-66
2023/12/05 01:58:15;;;;;;;22.70;18.23;;;;;;;;;;5051300;28;20677;-66
2023/12/05 02:00:41;;;;;;;23.23;18.17;;;;;;;;;;5033995;28;20404;-66
2023/12/05 02:03:07;;;;;;;26.53;19.97;;;;;;;;;;5032439;28;20815;-67
2023/12/05 02:05:32;;;;;;;21.80;17.63;;;;;;;;;;5051668;28;20409;-67
2023/12/05 02:07:58;;;;;;;21.95;18.05;;;;;;;;;;5051322;28;20970;-66
2023/12/05 02:10:23;;;;;;;22.20;17.43;;;;;;;;;;5050132;28;20386;-66
2023/12/05 02:12:48;;;;;;;28.87;21.33;;;;;;;;;;5051540;28;20394;-66
2023/12/05 02:15:14;;;;;;;26.47;19.57;;;;;;;;;;5051015;28;20400;-67
2023/12/05 02:17:42;;;;;;;28.03;21.20;;;;;;;;;;5037286;28;20423;-67
2023/12/05 02:20:10;;;;;;;27.63;20.77;;;;;;;;;;5037347;28;20509;-66
2023/12/05 02:22:39;;;;;;;27.02;19.65;;;;;;;;;;5020037;28;20392;-67
2023/12/05 02:25:11;;;;;;;27.92;19.95;;;;;;;;;;5039955;28;20413;-67
2023/12/05 02:27:38;;;;;;;25.17;19.43;;;;;;;;;;5023437;28;20443;-67
2023/12/05 02:30:04;;;;;;;26.50;19.73;;;;;;;;;;5037236;28;20398;-66
2023/12/05 02:32:29;;;;;;;27.57;20.33;;;;;;;;;;5033462;28;20393;-67
2023/12/05 02:34:54;;;;;;;26.43;19.03;;;;;;;;;;5025230;28;20985;-67
2023/12/05 02:37:23;;;;;;;25.40;19.30;;;;;;;;;;5014379;28;20806;-66
2023/12/05 02:39:51;;;;;;;24.42;19.05;;;;;;;;;;5023325;28;21035;-66
2023/12/05 02:42:17;;;;;;;26.08;19.10;;;;;;;;;;5022848;28;20416;-67
2023/12/05 02:44:45;;;;;;;24.53;19.00;;;;;;;;;;5018858;28;20399;-67
2023/12/05 02:47:11;;;;;;;26.88;20.13;;;;;;;;;;5022346;28;20417;-67
2023/12/05 02:49:37;;;;;;;25.38;19.08;;;;;;;;;;5023280;28;20408;-67
2023/12/05 02:52:02;;;;;;;22.07;17.07;;;;;;;;;;5030703;28;20403;-67
2023/12/05 02:54:27;;;;;;;26.60;19.37;;;;;;;;;;5013733;28;20498;-67
2023/12/05 02:56:53;;;;;;;25.90;19.30;;;;;;;;;;5013082;28;20415;-67
2023/12/05 02:59:18;;;;;;;24.13;18.97;;;;;;;;;;5012176;28;20464;-67
2023/12/05 03:01:43;;;;;;;24.15;18.63;;;;;;;;;;5020513;28;20926;-66
2023/12/05 03:04:09;;;;;;;25.00;18.87;;;;;;;;;;5020625;28;20414;-67
2023/12/05 03:06:34;;;;;;;23.47;18.67;;;;;;;;;;5027427;28;20403;-67
2023/12/05 03:09:03;;;;;;;26.13;19.90;;;;;;;;;;5021030;28;20406;-67
2023/12/05 03:11:29;;;;;;;28.10;20.27;;;;;;;;;;5039925;28;21001;-67
2023/12/05 03:13:54;;;;;;;23.03;18.00;;;;;;;;;;5040009;28;20884;-67
2023/12/05 03:16:20;;;;;;;26.85;19.52;;;;;;;;;;5030998;28;20418;-67
2023/12/05 03:18:45;;;;;;;25.40;19.77;;;;;;;;;;5023232;28;20453;-67
2023/12/05 03:21:14;;;;;;;28.37;19.73;;;;;;;;;;5046404;28;20390;-67
2023/12/05 03:23:40;;;;;;;26.45;19.80;;;;;;;;;;5032587;28;20772;-67
2023/12/05 03:26:05;;;;;;;29.30;20.67;;;;;;;;;;5041620;28;20407;-67
2023/12/05 03:28:30;;;;;;;24.87;19.00;;;;;;;;;;5029238;28;20439;-66
2023/12/05 03:30:56;;;;;;;27.38;19.80;;;;;;;;;;5030139;28;20398;-67
2023/12/05 03:33:21;;;;;;;25.70;19.00;;;;;;;;;;5028810;28;20391;-66
2023/12/05 03:35:46;;;;;;;27.53;20.17;;;;;;;;;;5030060;28;20533;-66
2023/12/05 03:38:11;;;;;;;30.03;20.80;;;;;;;;;;5029733;28;20403;-67
2023/12/05 03:40:37;;;;;;;28.02;20.40;;;;;;;;;;5029174;28;20411;-67
2023/12/05 03:43:02;;;;;;;26.07;19.77;;;;;;;;;;5029577;28;20397;-66
2023/12/05 03:45:27;;;;;;;27.37;20.60;;;;;;;;;;5048304;28;20401;-66
2023/12/05 03:47:53;;;;;;;28.70;20.10;;;;;;;;;;5048791;28;20397;-66
2023/12/05 03:50:18;;;;;;;25.47;19.43;;;;;;;;;;5049210;28;20501;-66
2023/12/05 03:52:43;;;;;;;29.30;20.67;;;;;;;;;;5049947;28;20436;-66
2023/12/05 03:55:08;;;;;;;28.93;20.70;;;;;;;;;;5048447;28;20397;-66
2023/12/05 03:57:34;;;;;;;26.53;19.67;;;;;;;;;;5049795;28;20402;-66
2023/12/05 03:59:59;;;;;;;26.63;19.30;;;;;;;;;;5049495;28;20405;-66
2023/12/05 04:02:24;;;;;;;26.53;19.67;;;;;;;;;;5048543;28;20401;-67
2023/12/05 04:04:50;;;;;;;30.37;21.40;;;;;;;;;;5049505;28;20488;-67
2023/12/05 04:07:15;;;;;;;28.50;20.33;;;;;;;;;;5048980;28;20824;-67
2023/12/05 04:09:40;;;;;;;27.77;20.17;;;;;;;;;;5049042;28;20784;-66
2023/12/05 04:12:06;;;;;;;28.27;20.03;;;;;;;;;;5049157;28;20535;-67
2023/12/05 04:14:31;;;;;;;28.63;20.42;;;;;;;;;;5051349;28;20784;-66
2023/12/05 04:16:56;;;;;;;24.20;18.67;;;;;;;;;;5052861;28;20496;-67
2023/12/05 04:19:22;;;;;;;27.17;20.20;;;;;;;;;;5052879;28;20424;-67
2023/12/05 04:21:47;;;;;;;28.67;20.43;;;;;;;;;;5053407;28;20401;-66
2023/12/05 04:24:12;;;;;;;31.17;21.50;;;;;;;;;;5051921;28;20828;-66
2023/12/05 04:26:37;;;;;;;28.27;20.70;;;;;;;;;;5053274;28;20439;-66
2023/12/05 04:29:04;;;;;;;25.08;19.05;;;;;;;;;;5052811;28;20433;-66
2023/12/05 04:31:29;;;;;;;27.95;20.33;;;;;;;;;;5066317;28;20388;-66
2023/12/05 04:33:55;;;;;;;28.40;21.00;;;;;;;;;;5073397;28;20482;-66
2023/12/05 04:36:22;;;;;;;25.03;19.37;;;;;;;;;;5072722;28;20403;-66
2023/12/05 04:38:48;;;;;;;31.48;21.73;;;;;;;;;;5072618;28;20882;-66
2023/12/05 04:41:13;;;;;;;28.57;20.33;;;;;;;;;;5072749;28;20425;-66
2023/12/05 04:43:38;;;;;;;31.83;22.00;;;;;;;;;;5068849;28;20459;-66
2023/12/05 04:46:04;;;;;;;28.33;20.33;;;;;;;;;;5052375;28;20432;-66
2023/12/05 04:48:29;;;;;;;29.80;21.70;;;;;;;;;;5053059;28;20432;-66
2023/12/05 04:50:54;;;;;;;29.63;20.90;;;;;;;;;;5052228;28;20405;-66
2023/12/05 04:53:20;;;;;;;29.40;20.70;;;;;;;;;;5052543;28;20382;-66
2023/12/05 04:55:45;;;;;;;28.03;20.70;;;;;;;;;;5053090;28;20420;-66
2023/12/05 04:58:10;;;;;;;29.87;20.53;;;;;;;;;;5051603;28;20729;-66
2023/12/05 05:00:36;;;;;;;30.17;20.45;;;;;;;;;;5052714;28;20947;-66
2023/12/05 05:03:01;;;;;;;29.97;21.13;;;;;;;;;;5052311;28;20908;-66
2023/12/05 05:05:27;;;;;;;28.50;20.55;;;;;;;;;;5051793;28;20425;-66
2023/12/05 05:07:52;;;;;;;26.90;20.43;;;;;;;;;;5052444;28;20421;-67
2023/12/05 05:10:18;;;;;;;24.53;18.47;;;;;;;;;;5052294;28;20394;-66
2023/12/05 05:12:43;;;;;;;27.45;20.35;;;;;;;;;;5052057;28;20488;-66
2023/12/05 05:15:09;;;;;;;29.37;21.40;;;;;;;;;;5051906;28;20458;-67
2023/12/05 05:17:34;;;;;;;26.25;19.67;;;;;;;;;;5052521;28;20924;-67
2023/12/05 05:19:59;;;;;;;29.10;20.73;;;;;;;;;;5051680;28;20397;-67
2023/12/05 05:22:26;;;;;;;26.97;19.87;;;;;;;;;;5035249;28;20565;-67
2023/12/05 05:24:51;;;;;;;27.35;20.20;;;;;;;;;;5014777;28;20399;-65
2023/12/05 05:27:16;;;;;;;24.77;19.30;;;;;;;;;;5020042;28;20410;-67
2023/12/05 05:29:41;;;;;;;26.27;19.30;;;;;;;;;;5022743;28;20423;-67
2023/12/05 05:32:07;;;;;;;23.93;18.57;;;;;;;;;;5022211;28;20417;-67
2023/12/05 05:34:32;;;;;;;27.60;20.83;;;;;;;;;;5028375;28;20405;-67
2023/12/05 05:36:57;;;;;;;25.67;19.13;;;;;;;;;;5042153;28;20429;-67
2023/12/05 05:39:23;;;;;;;24.90;19.07;;;;;;;;;;5033970;28;20397;-67
2023/12/05 05:41:48;;;;;;;25.20;18.33;;;;;;;;;;5018525;28;20851;-67
2023/12/05 05:44:13;;;;;;;24.77;18.67;;;;;;;;;;5014551;28;20996;-67
2023/12/05 05:46:38;;;;;;;26.10;18.67;;;;;;;;;;5014414;28;20494;-67
2023/12/05 05:49:04;;;;;;;22.10;17.23;;;;;;;;;;5036157;28;20405;-67
2023/12/05 05:51:29;;;;;;;26.03;18.80;;;;;;;;;;5023877;28;20389;-67
2023/12/05 05:53:55;;;;;;;25.40;18.25;;;;;;;;;;5023189;28;20401;-67
2023/12/05 05:56:21;;;;;;;26.67;20.05;;;;;;;;;;5032089;28;20415;-67
2023/12/05 05:58:46;;;;;;;24.25;18.92;;;;;;;;;;5022721;28;20873;-67
2023/12/05 06:01:12;;;;;;;25.70;19.33;;;;;;;;;;5021214;28;20501;-67
2023/12/05 06:03:37;;;;;;;24.03;18.60;;;;;;;;;;5029498;28;20490;-67
2023/12/05 06:06:04;;;;;;;27.42;20.63;;;;;;;;;;5013594;28;20913;-67
2023/12/05 06:08:29;;;;;;;25.75;19.17;;;;;;;;;;5032452;28;20684;-67
2023/12/05 06:10:54;;;;;;;25.40;18.80;;;;;;;;;;5033697;28;20397;-67
2023/12/05 06:13:20;;;;;;;27.08;19.83;;;;;;;;;;5040682;28;20400;-67
2023/12/05 06:15:45;;;;;;;24.73;18.63;;;;;;;;;;5040713;28;20412;-67
2023/12/05 06:18:15;;;;;;;29.03;20.00;;;;;;;;;;5040692;28;20419;-67
2023/12/05 06:20:40;;;;;;;28.05;20.27;;;;;;;;;;5041174;28;20857;-67
2023/12/05 06:23:05;;;;;;;25.53;19.13;;;;;;;;;;5040328;28;20481;-67
2023/12/05 06:25:31;;;;;;;29.97;24.87;;;;;;;;;;5040995;28;20393;-67
2023/12/05 06:27:56;;;;;;;29.93;20.93;;;;;;;;;;5035537;28;20409;-67
2023/12/05 06:30:21;;;;;;;26.20;20.07;;;;;;;;;;5018110;28;20743;-67
2023/12/05 06:32:47;;;;;;;28.40;20.53;;;;;;;;;;5024305;28;20892;-68
2023/12/05 06:35:12;;;;;;;26.10;19.83;;;;;;;;;;5021137;28;20413;-67
2023/12/05 06:37:37;;;;;;;25.87;19.57;;;;;;;;;;5039524;28;20413;-67
2023/12/05 06:40:03;;;;;;;29.00;20.87;;;;;;;;;;5040603;28;20401;-66
2023/12/05 06:42:28;;;;;;;28.00;19.95;;;;;;;;;;5041216;28;20839;-65
2023/12/05 06:44:53;;;;;;;30.20;21.63;;;;;;;;;;5026335;28;20486;-66
2023/12/05 06:47:19;;;;;;;28.13;21.37;;;;;;;;;;5020465;28;20418;-66
2023/12/05 06:49:44;;;;;;;28.93;20.60;;;;;;;;;;5031386;28;20488;-65
2023/12/05 06:52:11;;;;;;;26.43;20.17;;;;;;;;;;5012627;28;20415;-65
2023/12/05 06:54:37;;;;;;;27.00;19.90;;;;;;;;;;5019412;28;20689;-63
2023/12/05 06:57:02;;;;;;;27.13;20.83;;;;;;;;;;5016194;28;20403;-65
2023/12/05 06:59:27;;;;;;;26.05;20.08;;;;;;;;;;5036052;28;20441;-65
2023/12/05 07:01:53;;;;;;;25.63;20.23;;;;;;;;;;5020685;28;20912;-65
2023/12/05 07:04:18;;;;;;;26.73;20.30;;;;;;;;;;5019982;28;20607;-65
2023/12/05 07:06:44;;;;;;;26.97;20.37;;;;;;;;;;5020892;28;20415;-65
2023/12/05 07:09:09;;;;;;;28.30;20.80;;;;;;;;;;5019948;28;20457;-65
2023/12/05 07:11:34;;;;;;;27.57;20.67;;;;;;;;;;5019074;28;20446;-66
2023/12/05 07:14:00;;;;;;;29.47;22.03;;;;;;;;;;5013712;28;20399;-67
2023/12/05 07:16:25;;;;;;;26.13;19.77;;;;;;;;;;5031622;28;20423;-67
2023/12/05 07:18:50;;;;;;;30.33;21.83;;;;;;;;;;5031373;28;20405;-67
2023/12/05 07:21:16;;;;;;;28.45;21.30;;;;;;;;;;5036770;28;20399;-68
2023/12/05 07:23:41;;;;;;;29.03;20.77;;;;;;;;;;5020301;28;20399;-67
2023/12/05 07:26:07;;;;;;;30.07;21.37;;;;;;;;;;5019299;28;20449;-68
2023/12/05 07:28:32;;;;;;;35.35;24.95;;;;;;;;;;5024876;28;20403;-66
2023/12/05 07:30:58;;;;;;;42.33;27.00;;;;;;;;;;5020711;28;20480;-67
2023/12/05 07:33:24;;;;;;;41.03;26.43;;;;;;;;;;5020208;28;20847;-68
2023/12/05 07:35:49;;;;;;;31.05;23.30;;;;;;;;;;5014695;28;20402;-67
2023/12/05 07:38:15;;;;;;;31.43;22.97;;;;;;;;;;5032254;28;20904;-67
2023/12/05 07:40:40;;;;;;;27.63;20.88;;;;;;;;;;5048683;28;20404;-67
2023/12/05 07:43:05;;;;;;;29.60;20.87;;;;;;;;;;5049208;28;20401;-67
2023/12/05 07:45:30;;;;;;;32.47;23.50;;;;;;;;;;5049099;28;20408;-68
2023/12/05 07:47:56;;;;;;;31.47;23.10;;;;;;;;;;5048491;28;20405;-67
2023/12/05 07:50:21;;;;;;;34.65;25.35;;;;;;;;;;5048948;28;20413;-66
2023/12/05 07:52:49;;;;;;;29.23;22.67;;;;;;;;;;5049428;28;20399;-66
2023/12/05 07:55:14;;;;;;;34.03;24.03;;;;;;;;;;5048052;28;20502;-67
2023/12/05 07:57:39;;;;;;;34.83;24.90;;;;;;;;;;5049243;28;20904;-66
2023/12/05 08:00:09;;;;;;;34.63;24.13;;;;;;;;;;5043247;28;20398;-66
2023/12/05 08:02:35;;;;;;;39.13;25.83;;;;;;;;;;5048869;28;20416;-67
2023/12/05 08:05:00;;;;;;;31.33;23.13;;;;;;;;;;5049599;28;21117;-67
2023/12/05 08:07:25;;;;;;;31.73;23.60;;;;;;;;;;5049317;28;20393;-67
2023/12/05 08:09:50;;;;;;;27.87;21.90;;;;;;;;;;5048322;28;20491;-65
2023/12/05 08:12:16;;;;;;;32.33;23.70;;;;;;;;;;5048517;28;20394;-66
2023/12/05 08:14:41;;;;;;;34.80;24.73;;;;;;;;;;5048734;28;21098;-66
2023/12/05 08:17:07;;;;;;;35.43;24.07;;;;;;;;;;5048948;28;20389;-66
2023/12/05 08:19:32;;;;;;;34.07;25.10;;;;;;;;;;5049524;28;20812;-65
2023/12/05 08:21:57;;;;;;;31.50;23.33;;;;;;;;;;5048376;28;20488;-65
2023/12/05 08:24:22;;;;;;;34.55;25.02;;;;;;;;;;5049114;28;20413;-66
2023/12/05 08:26:48;;;;;;;36.10;24.03;;;;;;;;;;5053484;28;20415;-67
2023/12/05 08:29:13;;;;;;;32.50;23.50;;;;;;;;;;5049698;28;20410;-66
2023/12/05 08:31:38;;;;;;;38.10;24.50;;;;;;;;;;5049391;28;20471;-67
2023/12/05 08:34:04;;;;;;;32.72;23.00;;;;;;;;;;5048318;28;20408;-65
2023/12/05 08:36:29;;;;;;;43.00;29.50;;;;;;;;;;5048293;28;20394;-66
2023/12/05 08:38:54;;;;;;;34.30;24.47;;;;;;;;;;5051202;28;20406;-67
2023/12/05 08:41:20;;;;;;;35.33;24.27;;;;;;;;;;5051059;28;20473;-65
2023/12/05 08:43:45;;;;;;;30.03;22.47;;;;;;;;;;5048207;28;20480;-68
2023/12/05 08:46:11;;;;;;;30.25;21.17;;;;;;;;;;5067585;28;20400;-67
2023/12/05 08:48:36;;;;;;;29.13;21.70;;;;;;;;;;5058735;28;20397;-67
2023/12/05 08:51:01;;;;;;;33.53;24.20;;;;;;;;;;5047746;28;20421;-67
2023/12/05 08:53:27;;;;;;;31.85;22.55;;;;;;;;;;5049287;28;20792;-67
2023/12/05 08:55:52;;;;;;;37.03;25.20;;;;;;;;;;5048897;28;20401;-68
2023/12/05 08:58:17;;;;;;;32.23;22.87;;;;;;;;;;5047855;28;20390;-67
2023/12/05 09:00:43;;;;;;;31.10;22.43;;;;;;;;;;5050928;28;20757;-68
2023/12/05 09:03:08;;;;;;;32.70;23.27;;;;;;;;;;5052229;28;20931;-67
2023/12/05 09:05:35;;;;;;;34.87;25.43;;;;;;;;;;5051980;28;20479;-68
2023/12/05 09:08:00;;;;;;;24.98;20.17;;;;;;;;;;5052382;28;20413;-68
2023/12/05 09:10:26;;;;;;;27.93;20.63;;;;;;;;;;5034485;28;20398;-68
2023/12/05 09:12:51;;;;;;;29.83;21.27;;;;;;;;;;5051875;28;20866;-67
2023/12/05 09:15:16;;;;;;;30.90;21.47;;;;;;;;;;5052250;28;20948;-67
2023/12/05 09:17:42;;;;;;;23.97;18.80;;;;;;;;;;5052672;28;20397;-67
2023/12/05 09:20:09;;;;;;;24.95;18.80;;;;;;;;;;5051167;28;20488;-67
2023/12/05 09:22:34;;;;;;;28.63;21.33;;;;;;;;;;5052704;28;20400;-67
2023/12/05 09:25:00;;;;;;;29.43;22.07;;;;;;;;;;5051099;28;20413;-68
2023/12/05 09:27:25;;;;;;;27.43;20.73;;;;;;;;;;5052047;28;20424;-67
2023/12/05 09:29:50;;;;;;;26.47;19.73;;;;;;;;;;5052260;28;20523;-68
2023/12/05 09:32:16;;;;;;;23.50;18.43;;;;;;;;;;5051209;28;20626;-67
2023/12/05 09:34:42;;;;;;;29.98;21.75;;;;;;;;;;5052339;28;20786;-67
2023/12/05 09:37:07;;;;;;;28.23;20.67;;;;;;;;;;5051476;28;20448;-67
2023/12/05 09:39:32;;;;;;;29.73;21.10;;;;;;;;;;5051372;28;20461;-67
2023/12/05 09:41:58;;;;;;;27.30;19.30;;;;;;;;;;5051855;28;20880;-67
2023/12/05 09:44:23;;;;;;;23.60;19.00;;;;;;;;;;5033838;28;20480;-67
2023/12/05 09:46:50;;;;;;;27.05;19.73;;;;;;;;;;5051254;28;20414;-67
2023/12/05 09:49:17;;;;;;;28.55;20.05;;;;;;;;;;5051407;28;20447;-67
2023/12/05 09:51:42;;;;;;;29.05;20.88;;;;;;;;;;5034238;28;20390;-68
2023/12/05 09:54:07;;;;;;;25.13;19.30;;;;;;;;;;5032767;28;20725;-67
2023/12/05 09:56:33;;;;;;;28.10;19.33;;;;;;;;;;5051890;28;20471;-67
2023/12/05 09:58:58;;;;;;;27.33;19.33;;;;;;;;;;5051872;28;20397;-67
2023/12/05 10:01:25;;;;;;;28.70;20.43;;;;;;;;;;5050503;28;20424;-67
2023/12/05 10:03:53;;;;;;;26.60;20.17;;;;;;;;;;5031913;28;20410;-67
2023/12/05 10:06:18;;;;;;;25.30;18.55;;;;;;;;;;5030864;28;20898;-68
2023/12/05 10:08:44;;;;;;;25.33;19.17;;;;;;;;;;5013317;28;20399;-67
2023/12/05 10:11:09;;;;;;;28.83;20.30;;;;;;;;;;5012426;28;20395;-67
2023/12/05 10:13:35;;;;;;;41.97;28.35;;;;;;;;;;5013442;28;20408;-67
2023/12/05 10:16:00;;;;;;;30.50;25.30;;;;;;;;;;5012968;28;20403;-67
2023/12/05 10:18:26;;;;;;;32.50;25.57;;;;;;;;;;5013485;28;20395;-67
2023/12/05 10:20:51;;;;;;;32.22;22.88;;;;;;;;;;5031576;28;20806;-67
2023/12/05 10:23:17;;;;;;;25.97;21.13;;;;;;;;;;5030062;28;20397;-67
2023/12/05 10:25:43;;;;;;;33.03;25.02;;;;;;;;;;5031047;28;20399;-67
2023/12/05 10:28:08;;;;;;;30.63;21.90;;;;;;;;;;5030526;28;20914;-67
2023/12/05 10:30:34;;;;;;;36.38;26.80;;;;;;;;;;5030639;28;20421;-67
2023/12/05 10:33:08;;;;;;;32.43;23.97;;;;;;;;;;5031274;28;20398;-67
2023/12/05 10:35:34;;;;;;;26.50;21.23;;;;;;;;;;5028918;28;20973;-67
2023/12/05 10:38:04;;;;;;;34.00;26.10;;;;;;;;;;5030937;28;20845;-67
2023/12/05 10:40:29;;;;;;;31.00;21.60;;;;;;;;;;5030391;28;20410;-67
2023/12/05 10:42:54;;;;;;;36.70;24.97;;;;;;;;;;5030188;28;20477;-68
2023/12/05 10:45:20;;;;;;;33.63;23.33;;;;;;;;;;5047871;28;20796;-67
2023/12/05 10:47:45;;;;;;;40.33;27.85;;;;;;;;;;5050181;28;20397;-67
2023/12/05 10:50:10;;;;;;;15.17;11.87;;;;;;;;;;5048788;28;20437;-63
2023/12/05 10:52:35;;;;;;;29.17;18.70;;;;;;;;;;5050323;28;20397;-69
2023/12/05 10:55:01;;;;;;;23.50;18.77;;;;;;;;;;5032197;28;20394;-65
2023/12/05 10:57:30;;;;;;;26.08;19.08;;;;;;;;;;5049653;28;20645;-66
2023/12/05 10:59:56;;;;;;;28.23;20.67;;;;;;;;;;5050539;28;20473;-65
2023/12/05 11:02:21;;;;;;;18.87;15.10;;;;;;;;;;5050088;28;20482;-65
2023/12/05 11:04:46;;;;;;;20.10;16.70;;;;;;;;;;5049835;28;20528;-65
2023/12/05 11:07:12;;;;;;;31.47;21.97;;;;;;;;;;5049690;28;20409;-65
2023/12/05 11:09:43;;;;;;;32.50;21.33;;;;;;;;;;5050261;28;20447;-65
2023/12/05 11:12:08;;;;;;;30.25;26.95;;;;;;;;;;5048978;28;20401;-66
2023/12/05 11:14:35;;;;;;;28.17;21.23;;;;;;;;;;5050299;28;20397;-65
2023/12/05 11:17:01;;;;;;;24.75;19.52;;;;;;;;;;5049885;28;20405;-65
2023/12/05 11:19:30;;;;;;;31.47;21.93;;;;;;;;;;5031784;28;20394;-67
2023/12/05 11:22:11;;;;;;;28.67;21.98;;;;;;;;;;5050286;28;20946;-68
2023/12/05 11:24:41;;;;;;;30.52;23.05;;;;;;;;;;5030713;28;20382;-68
2023/12/05 11:27:19;;;;;;;30.88;22.88;;;;;;;;;;5049610;28;20409;-67
2023/12/05 11:29:44;;;;;;;38.10;25.90;;;;;;;;;;5049991;28;20869;-68
2023/12/05 11:32:12;;;;;;;30.05;23.50;;;;;;;;;;5048696;28;20428;-69
2023/12/05 11:34:43;;;;;;;36.50;24.00;;;;;;;;;;5050177;28;20884;-68
2023/12/05 11:37:27;;;;;;;36.78;23.42;;;;;;;;;;5031466;28;20455;-66
2023/12/05 11:39:53;;;;;;;25.48;20.30;;;;;;;;;;5048760;28;20431;-68
2023/12/05 11:42:19;;;;;;;30.80;22.67;;;;;;;;;;5031663;28;20393;-67
2023/12/05 11:44:45;;;;;;;27.15;20.38;;;;;;;;;;5050038;28;20773;-67
2023/12/05 11:47:16;;;;;;;26.48;20.63;;;;;;;;;;5048646;28;20462;-67
2023/12/05 11:49:45;;;;;;;28.10;21.52;;;;;;;;;;5049649;28;20481;-67
2023/12/05 11:52:11;;;;;;;27.65;22.60;;;;;;;;;;5049257;28;20409;-67
2023/12/05 11:54:36;;;;;;;26.25;20.73;;;;;;;;;;5048885;28;20393;-67
2023/12/05 11:57:14;;;;;;;28.50;22.03;;;;;;;;;;5049308;28;20390;-67
2023/12/05 11:59:41;;;;;;;30.40;20.92;;;;;;;;;;5049076;28;20401;-67
2023/12/05 12:02:07;;;;;;;24.20;18.38;;;;;;;;;;5048832;28;20757;-67
2023/12/05 12:04:33;;;;;;;43.38;29.77;;;;;;;;;;5049823;28;20385;-67
2023/12/05 12:06:58;;;;;;;28.08;22.55;;;;;;;;;;5031004;28;20925;-67
2023/12/05 12:09:24;;;;;;;39.23;26.80;;;;;;;;;;5048686;28;20390;-67
2023/12/05 12:11:49;;;;;;;35.72;24.13;;;;;;;;;;5031900;28;20425;-67
2023/12/05 12:14:16;;;;;;;28.50;21.70;;;;;;;;;;5030398;28;20409;-67
2023/12/05 12:16:41;;;;;;;30.42;23.13;;;;;;;;;;5049203;28;20488;-67
2023/12/05 12:19:14;;;;;;;22.57;17.30;;;;;;;;;;5031357;28;20835;-67
2023/12/05 12:21:40;;;;;;;25.25;19.25;;;;;;;;;;5032164;28;20484;-67
2023/12/05 12:24:06;;;;;;;36.53;24.00;;;;;;;;;;5048611;28;20488;-67
2023/12/05 12:26:32;;;;;;;24.45;18.10;;;;;;;;;;5049245;28;20409;-67
2023/12/05 12:29:06;;;;;;;24.60;17.70;;;;;;;;;;5031008;28;20397;-67
2023/12/05 12:31:32;;;;;;;36.05;22.77;;;;;;;;;;5049034;28;20817;-67
2023/12/05 12:33:57;;;;;;;77.40;38.77;;;;;;;;;;5049356;28;20496;-66
2023/12/05 12:36:23;;;;;;;46.17;28.80;;;;;;;;;;5051242;28;20892;-65
2023/12/05 12:38:49;;;;;;;117.57;58.58;;;;;;;;;;5052985;28;20403;-67
2023/12/05 12:41:15;;;;;;;51.85;31.38;;;;;;;;;;5034699;28;20398;-65
2023/12/05 12:43:42;;;;;;;50.17;32.23;;;;;;;;;;5052279;28;20922;-65
2023/12/05 12:46:07;;;;;;;123.50;81.93;;;;;;;;;;5052328;28;20458;-66
2023/12/05 12:48:32;;;;;;;39.13;28.13;;;;;;;;;;5050860;28;20405;-66
2023/12/05 12:50:57;;;;;;;35.90;27.40;;;;;;;;;;5052331;28;20832;-66
2023/12/05 12:53:23;;;;;;;30.88;21.98;;;;;;;;;;5052249;28;20409;-66
2023/12/05 12:55:48;;;;;;;39.07;29.73;;;;;;;;;;5052824;28;20394;-66
2023/12/05 12:58:14;;;;;;;44.03;27.80;;;;;;;;;;5051467;28;20397;-66
2023/12/05 13:00:40;;;;;;;47.85;29.90;;;;;;;;;;5052703;28;20905;-66
2023/12/05 13:03:06;;;;;;;63.77;42.80;;;;;;;;;;5051295;28;20796;-66
2023/12/05 13:05:35;;;;;;;33.53;23.87;;;;;;;;;;5052784;28;20858;-65
2023/12/05 13:08:01;;;;;;;57.55;45.22;;;;;;;;;;5051745;28;20799;-66
2023/12/05 13:10:27;;;;;;;38.63;25.65;;;;;;;;;;5051779;28;20404;-65
2023/12/05 13:12:53;;;;;;;33.50;23.53;;;;;;;;;;5033394;28;20436;-65
2023/12/05 13:15:20;;;;;;;37.13;27.67;;;;;;;;;;5052070;28;20429;-65
2023/12/05 13:17:57;;;;;;;36.80;24.38;;;;;;;;;;5051515;28;20398;-65
2023/12/05 13:20:23;;;;;;;36.53;24.02;;;;;;;;;;5051887;28;20390;-65
2023/12/05 13:22:48;;;;;;;35.72;24.48;;;;;;;;;;5052295;28;20400;-65
2023/12/05 13:25:14;;;;;;;35.67;25.33;;;;;;;;;;5050992;28;20852;-64
2023/12/05 13:27:39;;;;;;;92.00;31.27;;;;;;;;;;5052262;28;20412;-65
2023/12/05 13:30:05;;;;;;;28.40;20.80;;;;;;;;;;5051892;28;20404;-65
2023/12/05 13:32:30;;;;;;;30.67;21.73;;;;;;;;;;5051604;28;20473;-65
2023/12/05 13:34:55;;;;;;;30.60;22.73;;;;;;;;;;5052314;28;20406;-65
2023/12/05 13:37:21;;;;;;;45.23;28.43;;;;;;;;;;5051516;28;20423;-65
2023/12/05 13:39:46;;;;;;;34.65;24.95;;;;;;;;;;5051059;28;20405;-65
2023/12/05 13:42:12;;;;;;;38.50;23.87;;;;;;;;;;5051300;28;20393;-65
2023/12/05 13:44:42;;;;;;;43.50;27.57;;;;;;;;;;5052098;28;20455;-65
2023/12/05 13:47:07;;;;;;;40.45;25.67;;;;;;;;;;5049831;28;20471;-65
2023/12/05 13:49:33;;;;;;;40.43;25.57;;;;;;;;;;5052123;28;20393;-65
2023/12/05 13:51:58;;;;;;;33.67;23.53;;;;;;;;;;5051818;28;20916;-65
2023/12/05 13:54:23;;;;;;;33.77;24.00;;;;;;;;;;5049162;28;20401;-66
2023/12/05 13:56:49;;;;;;;38.90;24.47;;;;;;;;;;5050913;28;20421;-65
2023/12/05 13:59:14;;;;;;;35.60;24.03;;;;;;;;;;5050597;28;20408;-65
2023/12/05 14:01:39;;;;;;;31.27;22.50;;;;;;;;;;5051589;28;20398;-65
2023/12/05 14:04:05;;;;;;;29.42;22.20;;;;;;;;;;5051108;28;20396;-65
2023/12/05 14:06:30;;;;;;;26.47;20.43;;;;;;;;;;5050579;28;20409;-65
2023/12/05 14:08:56;;;;;;;29.85;21.95;;;;;;;;;;5033602;28;20480;-65